sensor_id;sensor_type;location;lat;lon;timestamp;P1;P2;P0
66336;PMS1003;53139;45.576;5.304;2023-02-07T00:00:49;14.00;12.25;8.75
66336;PMS1003;53139;45.576;5.304;2023-02-07T00:05:11;18.75;15.50;12.00
66336;PMS1003;53139;45.576;5.304;2023-02-07T00:09:12;16.00;12.75;8.50
66336;PMS1003;53139;45.576;5.304;2023-02-07T00:13:20;20.00;16.50;10.25
66336;PMS1003;53139;45.576;5.304;2023-02-07T00:25:16;24.00;16.75;11.50
66336;PMS1003;53139;45.576;5.304;2023-02-07T00:28:52;33.00;28.00;18.75
66336;PMS1003;53139;45.576;5.304;2023-02-07T00:32:03;17.00;15.75;11.00
66336;PMS1003;53139;45.576;5.304;2023-02-07T00:35:44;87.75;63.75;37.50
66336;PMS1003;53139;45.576;5.304;2023-02-07T00:39:13;22.75;14.00;10.25
66336;PMS1003;53139;45.576;5.304;2023-02-07T00:43:00;21.50;14.50;10.25
66336;PMS1003;53139;45.576;5.304;2023-02-07T00:46:02;19.25;16.00;10.75
66336;PMS1003;53139;45.576;5.304;2023-02-07T00:49:46;18.50;11.25;8.00
66336;PMS1003;53139;45.576;5.304;2023-02-07T00:52:47;20.25;16.00;12.00
66336;PMS1003;53139;45.576;5.304;2023-02-07T00:55:48;19.50;15.50;11.50
66336;PMS1003;53139;45.576;5.304;2023-02-07T00:58:49;15.25;13.50;10.50
66336;PMS1003;53139;45.576;5.304;2023-02-07T01:01:53;16.50;13.50;9.50
66336;PMS1003;53139;45.576;5.304;2023-02-07T01:04:54;16.25;12.25;9.50
66336;PMS1003;53139;45.576;5.304;2023-02-07T01:07:55;15.25;15.00;11.75
66336;PMS1003;53139;45.576;5.304;2023-02-07T01:10:56;14.25;12.25;8.00
66336;PMS1003;53139;45.576;5.304;2023-02-07T01:14:02;18.50;17.75;12.75
66336;PMS1003;53139;45.576;5.304;2023-02-07T01:17:02;28.00;22.00;17.25
66336;PMS1003;53139;45.576;5.304;2023-02-07T01:20:03;19.25;15.00;9.50
66336;PMS1003;53139;45.576;5.304;2023-02-07T01:23:04;16.50;15.00;9.00
66336;PMS1003;53139;45.576;5.304;2023-02-07T01:26:07;22.00;19.25;12.25
66336;PMS1003;53139;45.576;5.304;2023-02-07T01:29:09;23.00;16.25;10.75
66336;PMS1003;53139;45.576;5.304;2023-02-07T01:32:16;26.75;19.00;13.50
66336;PMS1003;53139;45.576;5.304;2023-02-07T01:35:16;20.75;18.00;11.25
66336;PMS1003;53139;45.576;5.304;2023-02-07T01:38:17;28.00;17.50;11.00
66336;PMS1003;53139;45.576;5.304;2023-02-07T01:41:18;22.50;16.00;12.75
66336;PMS1003;53139;45.576;5.304;2023-02-07T01:47:23;21.50;16.75;12.75
66336;PMS1003;53139;45.576;5.304;2023-02-07T01:50:24;22.50;17.75;14.00
66336;PMS1003;53139;45.576;5.304;2023-02-07T01:53:26;21.00;18.00;13.75
66336;PMS1003;53139;45.576;5.304;2023-02-07T01:56:29;20.75;14.50;11.00
66336;PMS1003;53139;45.576;5.304;2023-02-07T01:59:31;20.25;17.00;11.50
66336;PMS1003;53139;45.576;5.304;2023-02-07T02:02:34;17.75;13.75;9.25
66336;PMS1003;53139;45.576;5.304;2023-02-07T02:05:37;17.00;15.25;11.00
66336;PMS1003;53139;45.576;5.304;2023-02-07T02:08:38;16.50;11.50;8.50
66336;PMS1003;53139;45.576;5.304;2023-02-07T02:18:29;23.25;17.75;11.00
66336;PMS1003;53139;45.576;5.304;2023-02-07T02:43:08;21.00;14.50;10.00
66336;PMS1003;53139;45.576;5.304;2023-02-07T02:46:26;18.50;17.50;11.50
66336;PMS1003;53139;45.576;5.304;2023-02-07T02:49:30;19.25;14.50;10.25
66336;PMS1003;53139;45.576;5.304;2023-02-07T02:52:33;31.00;21.50;15.00
66336;PMS1003;53139;45.576;5.304;2023-02-07T03:09:23;17.75;14.00;10.00
66336;PMS1003;53139;45.576;5.304;2023-02-07T03:12:39;19.00;16.25;11.75
66336;PMS1003;53139;45.576;5.304;2023-02-07T03:19:08;21.25;14.50;10.00
66336;PMS1003;53139;45.576;5.304;2023-02-07T03:22:14;17.00;13.75;10.00
66336;PMS1003;53139;45.576;5.304;2023-02-07T03:25:19;23.25;19.00;14.00
66336;PMS1003;53139;45.576;5.304;2023-02-07T03:28:21;18.75;14.25;9.75
66336;PMS1003;53139;45.576;5.304;2023-02-07T03:31:25;18.00;17.00;12.75
66336;PMS1003;53139;45.576;5.304;2023-02-07T03:34:38;25.50;17.25;14.00
66336;PMS1003;53139;45.576;5.304;2023-02-07T03:37:46;22.25;17.75;12.25
66336;PMS1003;53139;45.576;5.304;2023-02-07T03:40:55;17.00;14.00;11.00
66336;PMS1003;53139;45.576;5.304;2023-02-07T03:44:00;15.25;13.75;11.00
66336;PMS1003;53139;45.576;5.304;2023-02-07T03:47:06;18.75;14.25;9.25
66336;PMS1003;53139;45.576;5.304;2023-02-07T03:50:06;17.50;15.50;11.00
66336;PMS1003;53139;45.576;5.304;2023-02-07T03:53:07;25.25;12.50;8.00
66336;PMS1003;53139;45.576;5.304;2023-02-07T03:56:08;21.25;16.00;12.25
66336;PMS1003;53139;45.576;5.304;2023-02-07T03:59:09;21.50;18.25;11.50
66336;PMS1003;53139;45.576;5.304;2023-02-07T04:02:09;24.50;16.50;13.00
66336;PMS1003;53139;45.576;5.304;2023-02-07T04:05:10;17.25;15.00;11.25
66336;PMS1003;53139;45.576;5.304;2023-02-07T04:08:11;20.50;13.00;10.25
66336;PMS1003;53139;45.576;5.304;2023-02-07T04:11:11;21.00;18.50;13.25
66336;PMS1003;53139;45.576;5.304;2023-02-07T04:14:12;20.75;15.25;11.00
66336;PMS1003;53139;45.576;5.304;2023-02-07T04:17:13;16.75;14.25;10.00
66336;PMS1003;53139;45.576;5.304;2023-02-07T04:20:14;23.25;15.00;11.50
66336;PMS1003;53139;45.576;5.304;2023-02-07T04:23:18;32.50;20.50;15.25
66336;PMS1003;53139;45.576;5.304;2023-02-07T04:26:22;22.25;18.25;15.00
66336;PMS1003;53139;45.576;5.304;2023-02-07T04:29:29;21.00;19.00;12.25
66336;PMS1003;53139;45.576;5.304;2023-02-07T04:32:30;22.50;18.25;11.50
66336;PMS1003;53139;45.576;5.304;2023-02-07T04:35:56;22.75;19.25;14.00
66336;PMS1003;53139;45.576;5.304;2023-02-07T04:39:10;23.50;18.00;13.75
66336;PMS1003;53139;45.576;5.304;2023-02-07T04:42:10;25.50;21.50;17.75
66336;PMS1003;53139;45.576;5.304;2023-02-07T04:45:23;20.75;18.25;14.00
66336;PMS1003;53139;45.576;5.304;2023-02-07T04:48:24;23.25;17.25;11.25
66336;PMS1003;53139;45.576;5.304;2023-02-07T04:51:24;19.25;16.00;11.75
66336;PMS1003;53139;45.576;5.304;2023-02-07T04:54:25;24.00;17.75;12.25
66336;PMS1003;53139;45.576;5.304;2023-02-07T04:57:28;19.00;18.50;12.25
66336;PMS1003;53139;45.576;5.304;2023-02-07T05:00:29;23.00;19.50;12.00
66336;PMS1003;53139;45.576;5.304;2023-02-07T05:03:29;23.00;18.75;13.25
66336;PMS1003;53139;45.576;5.304;2023-02-07T05:06:30;21.75;12.25;10.25
66336;PMS1003;53139;45.576;5.304;2023-02-07T05:09:40;22.75;17.25;12.75
66336;PMS1003;53139;45.576;5.304;2023-02-07T05:13:11;19.00;17.00;13.00
66336;PMS1003;53139;45.576;5.304;2023-02-07T05:16:18;24.25;19.75;12.00
66336;PMS1003;53139;45.576;5.304;2023-02-07T05:19:18;19.50;15.25;12.75
66336;PMS1003;53139;45.576;5.304;2023-02-07T05:22:23;19.00;15.25;11.00
66336;PMS1003;53139;45.576;5.304;2023-02-07T05:25:29;19.25;16.75;11.25
66336;PMS1003;53139;45.576;5.304;2023-02-07T05:28:31;22.25;17.75;13.00
66336;PMS1003;53139;45.576;5.304;2023-02-07T05:31:32;23.50;19.25;14.00
66336;PMS1003;53139;45.576;5.304;2023-02-07T05:34:51;25.00;18.75;13.25
66336;PMS1003;53139;45.576;5.304;2023-02-07T05:37:52;24.00;20.50;14.00
66336;PMS1003;53139;45.576;5.304;2023-02-07T05:40:53;21.25;20.25;14.00
66336;PMS1003;53139;45.576;5.304;2023-02-07T05:43:54;22.25;18.25;14.75
66336;PMS1003;53139;45.576;5.304;2023-02-07T05:46:54;20.75;18.00;12.75
66336;PMS1003;53139;45.576;5.304;2023-02-07T05:50:02;11.75;11.75;10.50
66336;PMS1003;53139;45.576;5.304;2023-02-07T05:53:03;20.50;14.50;9.25
66336;PMS1003;53139;45.576;5.304;2023-02-07T05:56:04;21.75;18.50;13.50
66336;PMS1003;53139;45.576;5.304;2023-02-07T05:59:05;24.00;18.75;13.50
66336;PMS1003;53139;45.576;5.304;2023-02-07T06:02:06;18.75;16.00;12.25
66336;PMS1003;53139;45.576;5.304;2023-02-07T06:05:07;18.75;15.00;11.00
66336;PMS1003;53139;45.576;5.304;2023-02-07T06:08:09;27.25;19.25;16.75
66336;PMS1003;53139;45.576;5.304;2023-02-07T06:11:10;26.25;21.75;14.75
66336;PMS1003;53139;45.576;5.304;2023-02-07T06:14:11;26.00;20.25;14.25
66336;PMS1003;53139;45.576;5.304;2023-02-07T06:17:12;22.00;21.00;14.00
66336;PMS1003;53139;45.576;5.304;2023-02-07T06:20:13;28.25;24.25;17.25
66336;PMS1003;53139;45.576;5.304;2023-02-07T06:23:14;27.75;24.25;18.00
66336;PMS1003;53139;45.576;5.304;2023-02-07T06:26:15;28.50;24.25;17.00
66336;PMS1003;53139;45.576;5.304;2023-02-07T06:29:15;27.25;18.75;14.75
66336;PMS1003;53139;45.576;5.304;2023-02-07T06:32:16;26.50;23.75;15.00
66336;PMS1003;53139;45.576;5.304;2023-02-07T06:35:16;22.25;19.25;14.00
66336;PMS1003;53139;45.576;5.304;2023-02-07T06:38:17;27.50;23.25;15.75
66336;PMS1003;53139;45.576;5.304;2023-02-07T06:41:18;24.00;20.50;14.25
66336;PMS1003;53139;45.576;5.304;2023-02-07T06:44:18;24.75;19.75;13.00
66336;PMS1003;53139;45.576;5.304;2023-02-07T06:47:19;25.50;22.75;17.00
66336;PMS1003;53139;45.576;5.304;2023-02-07T06:50:19;36.00;28.75;20.25
66336;PMS1003;53139;45.576;5.304;2023-02-07T06:53:20;30.33;27.33;22.33
66336;PMS1003;53139;45.576;5.304;2023-02-07T06:56:20;29.25;24.00;16.50
66336;PMS1003;53139;45.576;5.304;2023-02-07T06:59:21;26.75;19.50;13.00
66336;PMS1003;53139;45.576;5.304;2023-02-07T07:02:21;32.25;24.00;16.75
66336;PMS1003;53139;45.576;5.304;2023-02-07T07:05:22;28.00;23.25;18.75
66336;PMS1003;53139;45.576;5.304;2023-02-07T07:08:23;28.25;24.75;16.00
66336;PMS1003;53139;45.576;5.304;2023-02-07T07:11:23;72.00;58.25;40.50
66336;PMS1003;53139;45.576;5.304;2023-02-07T07:14:24;37.75;31.50;22.00
66336;PMS1003;53139;45.576;5.304;2023-02-07T07:17:24;38.50;30.50;20.25
66336;PMS1003;53139;45.576;5.304;2023-02-07T07:20:25;28.50;24.25;18.50
66336;PMS1003;53139;45.576;5.304;2023-02-07T07:23:26;41.25;36.50;22.75
66336;PMS1003;53139;45.576;5.304;2023-02-07T07:26:26;39.25;31.75;21.75
66336;PMS1003;53139;45.576;5.304;2023-02-07T07:29:27;39.00;24.75;18.25
66336;PMS1003;53139;45.576;5.304;2023-02-07T07:32:28;47.00;43.75;29.25
66336;PMS1003;53139;45.576;5.304;2023-02-07T07:35:28;41.75;29.00;22.50
66336;PMS1003;53139;45.576;5.304;2023-02-07T07:39:10;37.25;31.00;22.75
66336;PMS1003;53139;45.576;5.304;2023-02-07T07:42:41;35.00;29.50;21.50
66336;PMS1003;53139;45.576;5.304;2023-02-07T07:45:42;42.00;33.50;23.75
66336;PMS1003;53139;45.576;5.304;2023-02-07T07:48:42;34.33;27.33;20.00
66336;PMS1003;53139;45.576;5.304;2023-02-07T07:51:46;38.50;33.25;22.00
66336;PMS1003;53139;45.576;5.304;2023-02-07T07:55:21;48.25;40.50;26.25
66336;PMS1003;53139;45.576;5.304;2023-02-07T07:58:23;37.25;33.50;22.75
66336;PMS1003;53139;45.576;5.304;2023-02-07T08:01:31;44.75;39.25;26.50
66336;PMS1003;53139;45.576;5.304;2023-02-07T08:05:49;49.25;36.25;20.75
66336;PMS1003;53139;45.576;5.304;2023-02-07T08:21:28;27.25;21.00;13.50
66336;PMS1003;53139;45.576;5.304;2023-02-07T08:29:33;32.50;23.50;16.00
66336;PMS1003;53139;45.576;5.304;2023-02-07T08:33:12;30.50;24.25;16.00
66336;PMS1003;53139;45.576;5.304;2023-02-07T08:36:47;25.00;21.75;15.00
66336;PMS1003;53139;45.576;5.304;2023-02-07T08:40:06;30.50;25.50;18.00
66336;PMS1003;53139;45.576;5.304;2023-02-07T08:47:27;34.75;26.00;16.00
66336;PMS1003;53139;45.576;5.304;2023-02-07T08:50:34;29.25;22.75;18.00
66336;PMS1003;53139;45.576;5.304;2023-02-07T08:54:45;24.75;22.25;15.25
66336;PMS1003;53139;45.576;5.304;2023-02-07T08:57:55;23.25;21.00;15.00
66336;PMS1003;53139;45.576;5.304;2023-02-07T09:10:11;17.00;14.00;10.00
66336;PMS1003;53139;45.576;5.304;2023-02-07T09:14:13;29.50;24.75;16.50
66336;PMS1003;53139;45.576;5.304;2023-02-07T09:18:31;28.50;25.50;17.00
66336;PMS1003;53139;45.576;5.304;2023-02-07T09:22:17;28.75;25.50;16.00
66336;PMS1003;53139;45.576;5.304;2023-02-07T09:26:03;26.75;25.75;16.25
66336;PMS1003;53139;45.576;5.304;2023-02-07T09:29:42;25.75;20.75;15.00
66336;PMS1003;53139;45.576;5.304;2023-02-07T09:33:22;24.00;19.50;13.00
66336;PMS1003;53139;45.576;5.304;2023-02-07T09:46:16;29.75;26.00;17.75
66336;PMS1003;53139;45.576;5.304;2023-02-07T09:50:26;26.25;23.50;16.50
66336;PMS1003;53139;45.576;5.304;2023-02-07T09:54:32;23.00;23.00;17.00
66336;PMS1003;53139;45.576;5.304;2023-02-07T10:07:11;20.50;17.50;12.25
66336;PMS1003;53139;45.576;5.304;2023-02-07T10:11:14;28.25;23.00;14.50
66336;PMS1003;53139;45.576;5.304;2023-02-07T10:26:22;21.00;20.25;14.00
66336;PMS1003;53139;45.576;5.304;2023-02-07T10:32:53;23.50;20.50;15.25
66336;PMS1003;53139;45.576;5.304;2023-02-07T10:36:15;24.75;22.25;16.00
66336;PMS1003;53139;45.576;5.304;2023-02-07T10:46:28;24.00;22.50;14.50
66336;PMS1003;53139;45.576;5.304;2023-02-07T10:49:36;22.75;20.75;14.25
66336;PMS1003;53139;45.576;5.304;2023-02-07T10:52:48;25.75;22.00;13.25
66336;PMS1003;53139;45.576;5.304;2023-02-07T10:56:13;26.50;23.50;15.75
66336;PMS1003;53139;45.576;5.304;2023-02-07T11:02:42;14.75;12.50;8.75
66336;PMS1003;53139;45.576;5.304;2023-02-07T11:06:00;19.25;18.00;11.75
66336;PMS1003;53139;45.576;5.304;2023-02-07T11:09:10;21.25;19.25;13.75
66336;PMS1003;53139;45.576;5.304;2023-02-07T11:12:21;23.25;17.25;10.25
66336;PMS1003;53139;45.576;5.304;2023-02-07T11:15:45;22.50;19.75;13.25
66336;PMS1003;53139;45.576;5.304;2023-02-07T11:18:57;24.00;17.75;11.25
66336;PMS1003;53139;45.576;5.304;2023-02-07T11:22:29;22.00;16.75;10.75
66336;PMS1003;53139;45.576;5.304;2023-02-07T11:26:06;18.00;16.50;12.00
66336;PMS1003;53139;45.576;5.304;2023-02-07T11:29:17;18.00;14.50;10.25
66336;PMS1003;53139;45.576;5.304;2023-02-07T11:32:23;16.00;15.25;10.00
66336;PMS1003;53139;45.576;5.304;2023-02-07T11:35:25;12.25;10.75;8.25
66336;PMS1003;53139;45.576;5.304;2023-02-07T11:38:47;18.50;14.25;9.50
66336;PMS1003;53139;45.576;5.304;2023-02-07T11:41:59;15.50;13.75;8.75
66336;PMS1003;53139;45.576;5.304;2023-02-07T11:45:21;15.00;14.00;8.25
66336;PMS1003;53139;45.576;5.304;2023-02-07T11:49:03;17.50;13.25;10.00
66336;PMS1003;53139;45.576;5.304;2023-02-07T11:52:06;16.75;15.00;10.75
66336;PMS1003;53139;45.576;5.304;2023-02-07T11:59:26;19.25;16.25;11.00
66336;PMS1003;53139;45.576;5.304;2023-02-07T12:03:22;15.50;13.25;9.00
66336;PMS1003;53139;45.576;5.304;2023-02-07T12:07:37;20.25;15.50;10.50
66336;PMS1003;53139;45.576;5.304;2023-02-07T12:11:27;17.00;16.00;12.50
66336;PMS1003;53139;45.576;5.304;2023-02-07T12:14:50;17.25;16.25;10.50
66336;PMS1003;53139;45.576;5.304;2023-02-07T12:18:51;15.00;13.00;9.00
66336;PMS1003;53139;45.576;5.304;2023-02-07T12:22:37;17.75;15.00;10.00
66336;PMS1003;53139;45.576;5.304;2023-02-07T12:26:00;21.75;18.00;12.75
66336;PMS1003;53139;45.576;5.304;2023-02-07T12:30:11;17.75;15.50;10.00
66336;PMS1003;53139;45.576;5.304;2023-02-07T12:33:39;16.75;16.25;11.25
66336;PMS1003;53139;45.576;5.304;2023-02-07T12:37:24;16.50;12.50;9.25
66336;PMS1003;53139;45.576;5.304;2023-02-07T12:41:04;17.75;17.50;11.75
66336;PMS1003;53139;45.576;5.304;2023-02-07T13:08:18;18.00;13.50;9.75
66336;PMS1003;53139;45.576;5.304;2023-02-07T13:19:49;16.50;15.00;10.00
66336;PMS1003;53139;45.576;5.304;2023-02-07T13:23:40;20.25;16.25;10.50
66336;PMS1003;53139;45.576;5.304;2023-02-07T13:47:47;15.00;12.50;9.00
66336;PMS1003;53139;45.576;5.304;2023-02-07T13:51:54;20.50;16.75;12.25
66336;PMS1003;53139;45.576;5.304;2023-02-07T13:55:29;17.25;16.75;11.75
66336;PMS1003;53139;45.576;5.304;2023-02-07T14:02:28;17.75;17.00;11.00
66336;PMS1003;53139;45.576;5.304;2023-02-07T14:06:15;18.50;16.50;10.50
66336;PMS1003;53139;45.576;5.304;2023-02-07T14:12:44;20.75;17.50;11.00
66336;PMS1003;53139;45.576;5.304;2023-02-07T14:15:52;17.00;16.50;11.00
66336;PMS1003;53139;45.576;5.304;2023-02-07T14:18:54;19.50;16.25;10.75
66336;PMS1003;53139;45.576;5.304;2023-02-07T14:25:50;15.75;15.00;11.50
66336;PMS1003;53139;45.576;5.304;2023-02-07T14:28:51;16.25;14.00;9.50
66336;PMS1003;53139;45.576;5.304;2023-02-07T14:31:58;20.00;16.25;12.00
66336;PMS1003;53139;45.576;5.304;2023-02-07T14:41:05;16.00;14.00;9.75
66336;PMS1003;53139;45.576;5.304;2023-02-07T14:44:22;15.00;14.25;10.00
66336;PMS1003;53139;45.576;5.304;2023-02-07T14:47:26;17.50;15.50;10.00
66336;PMS1003;53139;45.576;5.304;2023-02-07T14:50:28;17.75;12.00;8.00
66336;PMS1003;53139;45.576;5.304;2023-02-07T14:53:29;15.00;13.25;10.25
66336;PMS1003;53139;45.576;5.304;2023-02-07T14:57:01;19.00;12.50;9.00
66336;PMS1003;53139;45.576;5.304;2023-02-07T15:03:13;19.50;13.50;9.00
66336;PMS1003;53139;45.576;5.304;2023-02-07T15:06:18;16.25;13.25;9.75
66336;PMS1003;53139;45.576;5.304;2023-02-07T15:09:25;15.00;15.00;9.00
66336;PMS1003;53139;45.576;5.304;2023-02-07T15:12:26;13.00;12.00;8.25
66336;PMS1003;53139;45.576;5.304;2023-02-07T15:15:34;13.75;12.50;9.75
66336;PMS1003;53139;45.576;5.304;2023-02-07T15:22:06;16.25;12.75;8.00
66336;PMS1003;53139;45.576;5.304;2023-02-07T15:25:10;16.25;14.75;8.50
66336;PMS1003;53139;45.576;5.304;2023-02-07T15:28:20;15.25;13.00;8.00
66336;PMS1003;53139;45.576;5.304;2023-02-07T15:31:45;14.25;10.25;7.50
66336;PMS1003;53139;45.576;5.304;2023-02-07T15:34:48;17.25;10.25;7.00
66336;PMS1003;53139;45.576;5.304;2023-02-07T15:37:49;11.00;10.25;7.00
66336;PMS1003;53139;45.576;5.304;2023-02-07T15:40:50;23.25;11.50;8.00
66336;PMS1003;53139;45.576;5.304;2023-02-07T15:43:54;14.75;13.25;9.25
66336;PMS1003;53139;45.576;5.304;2023-02-07T15:47:29;14.50;12.75;9.00
66336;PMS1003;53139;45.576;5.304;2023-02-07T15:50:32;17.00;14.00;9.50
66336;PMS1003;53139;45.576;5.304;2023-02-07T15:53:33;17.50;14.00;8.75
66336;PMS1003;53139;45.576;5.304;2023-02-07T15:56:33;12.25;11.25;8.00
66336;PMS1003;53139;45.576;5.304;2023-02-07T15:59:34;13.25;11.25;8.75
66336;PMS1003;53139;45.576;5.304;2023-02-07T16:02:36;18.25;16.00;9.75
66336;PMS1003;53139;45.576;5.304;2023-02-07T16:05:42;15.00;14.50;11.25
66336;PMS1003;53139;45.576;5.304;2023-02-07T16:08:43;12.75;10.00;8.00
66336;PMS1003;53139;45.576;5.304;2023-02-07T16:11:44;13.50;11.75;9.25
66336;PMS1003;53139;45.576;5.304;2023-02-07T16:14:50;13.75;12.00;7.25
66336;PMS1003;53139;45.576;5.304;2023-02-07T16:17:50;15.00;14.75;10.00
66336;PMS1003;53139;45.576;5.304;2023-02-07T16:20:51;22.50;19.50;12.00
66336;PMS1003;53139;45.576;5.304;2023-02-07T16:23:52;20.00;14.75;10.00
66336;PMS1003;53139;45.576;5.304;2023-02-07T16:26:59;20.00;15.50;10.75
66336;PMS1003;53139;45.576;5.304;2023-02-07T16:30:00;16.25;13.25;10.00
66336;PMS1003;53139;45.576;5.304;2023-02-07T16:33:03;15.00;13.25;9.25
66336;PMS1003;53139;45.576;5.304;2023-02-07T16:36:14;22.25;16.00;12.75
66336;PMS1003;53139;45.576;5.304;2023-02-07T16:39:16;14.00;13.00;10.00
66336;PMS1003;53139;45.576;5.304;2023-02-07T16:42:16;15.75;14.25;10.50
66336;PMS1003;53139;45.576;5.304;2023-02-07T16:45:19;17.00;14.25;10.00
66336;PMS1003;53139;45.576;5.304;2023-02-07T16:48:22;22.25;18.00;13.00
66336;PMS1003;53139;45.576;5.304;2023-02-07T16:51:22;21.00;14.50;11.50
66336;PMS1003;53139;45.576;5.304;2023-02-07T16:54:23;16.00;14.00;11.00
66336;PMS1003;53139;45.576;5.304;2023-02-07T16:57:24;17.25;15.25;10.75
66336;PMS1003;53139;45.576;5.304;2023-02-07T17:00:25;21.25;16.25;12.00
66336;PMS1003;53139;45.576;5.304;2023-02-07T17:03:25;12.25;12.25;10.00
66336;PMS1003;53139;45.576;5.304;2023-02-07T17:06:26;17.25;15.25;11.50
66336;PMS1003;53139;45.576;5.304;2023-02-07T17:09:27;26.00;20.00;15.50
66336;PMS1003;53139;45.576;5.304;2023-02-07T17:12:27;30.50;23.25;17.00
66336;PMS1003;53139;45.576;5.304;2023-02-07T17:15:34;31.00;27.00;20.00
66336;PMS1003;53139;45.576;5.304;2023-02-07T17:18:35;39.25;31.75;21.50
66336;PMS1003;53139;45.576;5.304;2023-02-07T17:21:35;36.25;32.00;22.00
66336;PMS1003;53139;45.576;5.304;2023-02-07T17:24:36;35.50;31.00;20.75
66336;PMS1003;53139;45.576;5.304;2023-02-07T17:27:36;30.50;24.00;19.00
66336;PMS1003;53139;45.576;5.304;2023-02-07T17:30:37;45.25;33.75;23.50
66336;PMS1003;53139;45.576;5.304;2023-02-07T17:33:39;43.00;37.75;25.75
66336;PMS1003;53139;45.576;5.304;2023-02-07T17:36:41;44.00;39.25;26.00
66336;PMS1003;53139;45.576;5.304;2023-02-07T17:39:44;60.50;45.50;28.25
66336;PMS1003;53139;45.576;5.304;2023-02-07T17:42:45;61.33;44.00;27.33
66336;PMS1003;53139;45.576;5.304;2023-02-07T17:45:45;65.67;50.67;34.33
66336;PMS1003;53139;45.576;5.304;2023-02-07T17:48:45;83.67;60.67;39.33
66336;PMS1003;53139;45.576;5.304;2023-02-07T17:51:48;74.25;58.50;38.25
66336;PMS1003;53139;45.576;5.304;2023-02-07T17:54:48;79.33;58.67;37.33
66336;PMS1003;53139;45.576;5.304;2023-02-07T17:57:48;54.67;47.67;32.00
66336;PMS1003;53139;45.576;5.304;2023-02-07T18:00:49;75.25;55.75;37.25
66336;PMS1003;53139;45.576;5.304;2023-02-07T18:03:52;80.25;60.75;41.75
66336;PMS1003;53139;45.576;5.304;2023-02-07T18:06:54;68.75;53.75;36.25
66336;PMS1003;53139;45.576;5.304;2023-02-07T18:09:55;72.00;58.00;37.50
66336;PMS1003;53139;45.576;5.304;2023-02-07T18:12:55;68.50;52.50;34.75
66336;PMS1003;53139;45.576;5.304;2023-02-07T18:15:56;87.00;68.75;45.25
66336;PMS1003;53139;45.576;5.304;2023-02-07T18:18:57;77.50;60.00;39.25
66336;PMS1003;53139;45.576;5.304;2023-02-07T18:21:57;71.67;56.67;38.00
66336;PMS1003;53139;45.576;5.304;2023-02-07T18:24:57;53.67;42.00;28.67
66336;PMS1003;53139;45.576;5.304;2023-02-07T18:27:58;53.00;42.25;29.00
66336;PMS1003;53139;45.576;5.304;2023-02-07T18:31:00;42.75;37.75;26.50
66336;PMS1003;53139;45.576;5.304;2023-02-07T18:34:06;52.25;45.00;29.75
66336;PMS1003;53139;45.576;5.304;2023-02-07T18:37:06;65.50;51.50;33.75
66336;PMS1003;53139;45.576;5.304;2023-02-07T18:40:07;52.75;40.50;29.50
66336;PMS1003;53139;45.576;5.304;2023-02-07T18:43:09;54.00;44.00;29.50
66336;PMS1003;53139;45.576;5.304;2023-02-07T18:46:10;63.50;44.00;30.25
66336;PMS1003;53139;45.576;5.304;2023-02-07T18:49:15;57.75;45.75;33.25
66336;PMS1003;53139;45.576;5.304;2023-02-07T18:52:16;54.75;45.00;31.75
66336;PMS1003;53139;45.576;5.304;2023-02-07T18:55:16;54.75;44.25;32.00
66336;PMS1003;53139;45.576;5.304;2023-02-07T18:58:21;57.75;45.25;31.25
66336;PMS1003;53139;45.576;5.304;2023-02-07T19:01:22;48.00;37.50;28.00
66336;PMS1003;53139;45.576;5.304;2023-02-07T19:04:24;39.00;31.25;21.75
66336;PMS1003;53139;45.576;5.304;2023-02-07T19:07:50;50.00;43.25;29.50
66336;PMS1003;53139;45.576;5.304;2023-02-07T19:10:54;35.50;34.00;22.50
66336;PMS1003;53139;45.576;5.304;2023-02-07T19:13:57;81.25;61.25;38.75
66336;PMS1003;53139;45.576;5.304;2023-02-07T19:16:58;67.25;55.00;33.00
66336;PMS1003;53139;45.576;5.304;2023-02-07T19:19:59;48.00;38.00;28.00
66336;PMS1003;53139;45.576;5.304;2023-02-07T19:22:59;66.00;50.50;32.50
66336;PMS1003;53139;45.576;5.304;2023-02-07T19:26:00;83.00;63.00;39.33
66336;PMS1003;53139;45.576;5.304;2023-02-07T19:29:01;64.50;45.75;30.50
66336;PMS1003;53139;45.576;5.304;2023-02-07T19:32:05;93.00;69.75;44.75
66336;PMS1003;53139;45.576;5.304;2023-02-07T19:35:07;72.75;56.00;36.00
66336;PMS1003;53139;45.576;5.304;2023-02-07T19:38:07;68.25;55.50;33.75
66336;PMS1003;53139;45.576;5.304;2023-02-07T19:41:08;74.00;51.75;35.50
66336;PMS1003;53139;45.576;5.304;2023-02-07T19:44:12;55.75;48.25;33.25
66336;PMS1003;53139;45.576;5.304;2023-02-07T19:47:13;78.75;59.00;38.25
66336;PMS1003;53139;45.576;5.304;2023-02-07T19:50:23;65.50;50.25;31.25
66336;PMS1003;53139;45.576;5.304;2023-02-07T19:53:25;66.75;50.00;32.50
66336;PMS1003;53139;45.576;5.304;2023-02-07T19:56:27;61.25;47.00;31.25
66336;PMS1003;53139;45.576;5.304;2023-02-07T19:59:37;57.25;43.75;27.25
66336;PMS1003;53139;45.576;5.304;2023-02-07T20:02:38;42.50;38.75;26.25
66336;PMS1003;53139;45.576;5.304;2023-02-07T20:05:44;32.25;27.00;18.00
66336;PMS1003;53139;45.576;5.304;2023-02-07T20:08:46;41.00;34.75;23.75
66336;PMS1003;53139;45.576;5.304;2023-02-07T20:11:47;29.75;28.50;19.50
66336;PMS1003;53139;45.576;5.304;2023-02-07T20:14:47;41.75;30.75;23.25
66336;PMS1003;53139;45.576;5.304;2023-02-07T20:17:48;105.50;80.50;50.50
66336;PMS1003;53139;45.576;5.304;2023-02-07T20:20:48;24.75;17.00;10.00
66336;PMS1003;53139;45.576;5.304;2023-02-07T20:23:49;29.75;27.50;20.25
66336;PMS1003;53139;45.576;5.304;2023-02-07T20:26:50;44.25;39.50;28.25
66336;PMS1003;53139;45.576;5.304;2023-02-07T20:29:51;48.25;41.00;30.00
66336;PMS1003;53139;45.576;5.304;2023-02-07T20:32:52;42.50;32.00;23.25
66336;PMS1003;53139;45.576;5.304;2023-02-07T20:35:53;35.50;27.00;20.00
66336;PMS1003;53139;45.576;5.304;2023-02-07T20:38:57;30.00;24.33;18.33
66336;PMS1003;53139;45.576;5.304;2023-02-07T20:41:59;33.75;25.50;18.50
66336;PMS1003;53139;45.576;5.304;2023-02-07T20:45:00;31.75;28.75;22.00
66336;PMS1003;53139;45.576;5.304;2023-02-07T20:48:00;37.25;30.75;21.50
66336;PMS1003;53139;45.576;5.304;2023-02-07T20:51:01;26.50;24.75;16.25
66336;PMS1003;53139;45.576;5.304;2023-02-07T20:54:09;40.00;25.50;18.00
66336;PMS1003;53139;45.576;5.304;2023-02-07T20:57:11;32.25;29.25;19.50
66336;PMS1003;53139;45.576;5.304;2023-02-07T21:00:11;42.50;30.50;21.75
66336;PMS1003;53139;45.576;5.304;2023-02-07T21:03:12;44.50;38.00;22.50
66336;PMS1003;53139;45.576;5.304;2023-02-07T21:06:13;35.50;33.50;25.00
66336;PMS1003;53139;45.576;5.304;2023-02-07T21:09:13;35.75;26.75;16.75
66336;PMS1003;53139;45.576;5.304;2023-02-07T21:12:15;37.00;33.00;20.25
66336;PMS1003;53139;45.576;5.304;2023-02-07T21:15:16;40.25;28.75;21.00
66336;PMS1003;53139;45.576;5.304;2023-02-07T21:18:16;55.25;44.75;29.25